Time;durP1;ratioP1;P1;durP2;ratioP2;P2;SDS_P1;SDS_P2;PMS_P1;PMS_P2;Temp;Humidity;BMP_temperature;BMP_pressure;BME280_temperature;BME280_humidity;BME280_pressure;Samples;Min_cycle;Max_cycle;Signal;HPM_P1;HPM_P2
2021/11/15 00:00:33;;;;;;;30.10;18.38;;;9.70;99.90;;;;;;5032340;28;20113;-76
2021/11/15 00:03:00;;;;;;;30.75;19.10;;;9.70;99.90;;;;;;5031634;28;20022;-77
2021/11/15 00:05:25;;;;;;;27.42;18.10;;;9.70;99.90;;;;;;5032361;28;20378;-76
2021/11/15 00:07:51;;;;;;;29.00;17.98;;;9.70;99.90;;;;;;5027943;28;20117;-76
2021/11/15 00:10:17;;;;;;;26.60;17.15;;;9.70;99.90;;;;;;5025053;28;20029;-76
2021/11/15 00:12:45;;;;;;;28.38;18.00;;;9.60;99.90;;;;;;5032348;28;20028;-76
2021/11/15 00:15:11;;;;;;;29.20;19.70;;;9.70;99.90;;;;;;5032504;28;20029;-76
2021/11/15 00:17:37;;;;;;;28.15;18.45;;;9.60;99.90;;;;;;5031649;28;20048;-75
2021/11/15 00:20:04;;;;;;;25.95;17.35;;;9.70;99.90;;;;;;5032006;28;20041;-77
2021/11/15 00:22:31;;;;;;;24.90;16.50;;;9.70;99.90;;;;;;5031619;28;20021;-74
2021/11/15 00:24:57;;;;;;;25.40;16.58;;;9.60;99.90;;;;;;5031068;28;20029;-75
2021/11/15 00:27:25;;;;;;;28.55;16.48;;;9.70;99.90;;;;;;5032331;28;20022;-77
2021/11/15 00:29:52;;;;;;;24.92;17.42;;;9.70;99.90;;;;;;5031827;28;20527;-77
2021/11/15 00:32:18;;;;;;;25.00;16.58;;;9.60;99.90;;;;;;5032727;28;20056;-75
2021/11/15 00:34:43;;;;;;;23.70;16.02;;;9.60;99.90;;;;;;5036154;28;20397;-76
2021/11/15 00:37:09;;;;;;;22.95;16.02;;;9.60;99.90;;;;;;5035084;28;20029;-77
2021/11/15 00:39:34;;;;;;;27.95;17.17;;;9.60;99.90;;;;;;5036196;28;20504;-75
2021/11/15 00:42:03;;;;;;;27.38;17.58;;;9.60;99.90;;;;;;5035767;28;20017;-76
2021/11/15 00:44:28;;;;;;;24.40;15.60;;;9.90;99.90;;;;;;5035133;28;20045;-76
2021/11/15 00:46:54;;;;;;;24.42;16.35;;;9.60;99.90;;;;;;5035290;28;20021;-76
2021/11/15 00:49:22;;;;;;;25.80;16.73;;;9.60;99.90;;;;;;5035415;28;20428;-76
2021/11/15 00:51:48;;;;;;;24.05;16.33;;;9.60;99.90;;;;;;5036249;28;20119;-76
2021/11/15 00:54:13;;;;;;;25.40;16.67;;;9.60;99.90;;;;;;5037172;28;20029;-76
2021/11/15 00:56:39;;;;;;;23.85;14.95;;;9.50;99.90;;;;;;5035789;28;20048;-76
2021/11/15 00:59:05;;;;;;;20.48;15.10;;;9.50;99.90;;;;;;5034422;28;20026;-76
2021/11/15 01:01:30;;;;;;;24.35;16.95;;;9.50;99.90;;;;;;5035474;28;20025;-76
2021/11/15 01:03:56;;;;;;;23.23;16.00;;;9.50;99.90;;;;;;5035004;28;20041;-77
2021/11/15 01:06:21;;;;;;;26.85;15.48;;;9.40;99.90;;;;;;5034660;28;20473;-76
2021/11/15 01:08:47;;;;;;;23.83;16.10;;;9.40;99.90;;;;;;5038114;28;20045;-76
2021/11/15 01:11:13;;;;;;;23.55;15.40;;;9.50;99.90;;;;;;5035425;28;20482;-76
2021/11/15 01:13:38;;;;;;;21.30;15.13;;;9.40;99.90;;;;;;5034689;28;20059;-77
2021/11/15 01:16:07;;;;;;;21.58;14.95;;;9.40;99.90;;;;;;5035170;28;20053;-76
2021/11/15 01:18:33;;;;;;;22.13;14.20;;;9.40;99.90;;;;;;5035827;28;20030;-76
2021/11/15 01:20:59;;;;;;;17.40;13.88;;;9.40;99.90;;;;;;5034543;28;20024;-76
2021/11/15 01:23:24;;;;;;;18.60;13.70;;;9.50;99.90;;;;;;5035846;28;20022;-77
2021/11/15 01:25:50;;;;;;;23.90;14.60;;;9.40;99.90;;;;;;5035392;28;20087;-76
2021/11/15 01:28:15;;;;;;;20.00;13.75;;;9.40;99.90;;;;;;5034344;28;20512;-76
2021/11/15 01:30:41;;;;;;;21.67;14.45;;;9.40;99.90;;;;;;5035184;28;20030;-76
2021/11/15 01:33:07;;;;;;;22.13;14.63;;;9.40;99.90;;;;;;5033502;28;20022;-76
2021/11/15 01:35:33;;;;;;;18.17;14.07;;;9.40;99.90;;;;;;5034729;28;20060;-76
2021/11/15 01:37:58;;;;;;;23.08;15.18;;;9.40;99.90;;;;;;5034976;28;20033;-76
2021/11/15 01:40:28;;;;;;;18.50;13.40;;;9.40;99.90;;;;;;5034109;28;20037;-76
2021/11/15 01:42:54;;;;;;;22.10;15.20;;;9.40;99.90;;;;;;5034474;28;20489;-77
2021/11/15 01:45:23;;;;;;;20.92;14.43;;;9.40;99.90;;;;;;5033399;28;20038;-76
2021/11/15 01:47:51;;;;;;;19.45;14.30;;;9.40;99.90;;;;;;5034004;28;20021;-76
2021/11/15 01:50:17;;;;;;;16.38;12.88;;;9.40;99.90;;;;;;5038072;28;20022;-77
2021/11/15 01:52:44;;;;;;;22.75;13.95;;;9.40;99.90;;;;;;5034651;28;20083;-76
2021/11/15 01:55:10;;;;;;;19.75;13.80;;;9.40;99.90;;;;;;5033870;28;20108;-77
2021/11/15 01:57:36;;;;;;;20.80;14.57;;;9.40;99.90;;;;;;5034467;28;20097;-75
2021/11/15 02:00:06;;;;;;;19.02;12.90;;;9.40;99.90;;;;;;5035120;28;20022;-75
2021/11/15 02:02:32;;;;;;;17.35;13.27;;;9.40;99.90;;;;;;5034120;28;20026;-77
2021/11/15 02:04:58;;;;;;;19.92;13.40;;;9.50;99.90;;;;;;5034352;28;20393;-76
2021/11/15 02:07:25;;;;;;;22.60;14.63;;;9.40;99.90;;;;;;5034602;28;20029;-77
2021/11/15 02:09:51;;;;;;;16.88;12.80;;;9.40;99.90;;;;;;5034050;28;20084;-77
2021/11/15 02:12:17;;;;;;;20.42;13.52;;;9.40;99.90;;;;;;5034294;28;20095;-75
2021/11/15 02:14:43;;;;;;;20.63;15.00;;;9.40;99.90;;;;;;5033646;28;20025;-77
2021/11/15 02:17:09;;;;;;;21.25;14.15;;;9.40;99.90;;;;;;5033570;28;20029;-76
2021/11/15 02:19:34;;;;;;;20.90;14.63;;;9.40;99.90;;;;;;5034567;28;20474;-76
2021/11/15 02:22:00;;;;;;;19.92;14.48;;;9.30;99.90;;;;;;5033752;28;20013;-74
2021/11/15 02:24:27;;;;;;;19.38;13.13;;;9.30;99.90;;;;;;5033269;28;20087;-76
2021/11/15 02:26:56;;;;;;;19.15;13.60;;;9.30;99.90;;;;;;5033788;28;20025;-75
2021/11/15 02:29:21;;;;;;;19.45;14.00;;;9.30;99.90;;;;;;5032878;28;20378;-75
2021/11/15 02:31:47;;;;;;;18.73;13.68;;;9.30;99.90;;;;;;5033317;28;20033;-76
2021/11/15 02:34:12;;;;;;;18.60;13.82;;;9.30;99.90;;;;;;5033739;28;20029;-75
2021/11/15 02:36:38;;;;;;;20.42;14.05;;;9.30;99.90;;;;;;5032972;28;20416;-77
2021/11/15 02:39:05;;;;;;;20.40;13.43;;;9.30;99.90;;;;;;5033816;28;20037;-75
2021/11/15 02:41:31;;;;;;;18.08;13.07;;;9.30;99.90;;;;;;5034300;28;20096;-75
2021/11/15 02:43:58;;;;;;;20.10;14.50;;;9.30;99.90;;;;;;5033016;28;20481;-76
2021/11/15 02:46:25;;;;;;;23.13;14.73;;;9.30;99.90;;;;;;5033813;28;20037;-75
2021/11/15 02:48:50;;;;;;;20.67;15.15;;;9.20;99.90;;;;;;5034300;28;20076;-75
2021/11/15 02:51:16;;;;;;;19.15;14.27;;;9.20;99.90;;;;;;5034217;28;20029;-76
2021/11/15 02:53:43;;;;;;;20.77;14.05;;;9.20;99.90;;;;;;5034986;28;20551;-76
2021/11/15 02:56:08;;;;;;;23.85;14.30;;;9.20;99.90;;;;;;5034282;28;20033;-75
2021/11/15 02:58:34;;;;;;;21.60;14.20;;;9.20;99.90;;;;;;5033671;28;20091;-77
2021/11/15 03:01:05;;;;;;;23.65;14.32;;;9.20;99.90;;;;;;5033804;28;20025;-77
2021/11/15 03:03:30;;;;;;;26.70;15.50;;;9.20;99.90;;;;;;5033705;28;20100;-75
2021/11/15 03:05:56;;;;;;;25.75;15.75;;;9.20;99.90;;;;;;5032612;28;20481;-75
2021/11/15 03:08:25;;;;;;;22.02;15.18;;;9.20;99.90;;;;;;5033276;28;20148;-77
2021/11/15 03:11:02;;;;;;;23.50;14.85;;;9.20;99.90;;;;;;5033381;28;20037;-77
2021/11/15 03:13:31;;;;;;;24.00;14.80;;;9.10;99.90;;;;;;5032614;28;20032;-77
2021/11/15 03:15:59;;;;;;;23.70;15.35;;;9.10;99.90;;;;;;5033651;28;20029;-76
2021/11/15 03:18:28;;;;;;;23.27;15.48;;;9.10;99.90;;;;;;5033877;28;20029;-74
2021/11/15 03:20:58;;;;;;;22.42;14.90;;;9.10;99.90;;;;;;5032740;28;20386;-76
2021/11/15 03:23:27;;;;;;;25.85;15.68;;;9.10;99.90;;;;;;5032697;28;20120;-76
2021/11/15 03:25:53;;;;;;;19.83;14.57;;;9.10;99.90;;;;;;5031841;28;20420;-77
2021/11/15 03:28:22;;;;;;;27.80;17.92;;;9.10;99.90;;;;;;5033595;28;20432;-77
2021/11/15 03:30:57;;;;;;;22.38;14.77;;;9.00;99.90;;;;;;5032484;28;20036;-76
2021/11/15 03:33:25;;;;;;;21.52;15.23;;;9.10;99.90;;;;;;5031867;28;20033;-75
2021/11/15 03:35:50;;;;;;;22.60;14.27;;;9.10;99.90;;;;;;5032550;28;20068;-77
2021/11/15 03:38:16;;;;;;;22.20;15.45;;;9.10;99.90;;;;;;5032678;28;20389;-76
2021/11/15 03:40:43;;;;;;;22.38;14.90;;;9.00;99.90;;;;;;5032099;28;20473;-76
2021/11/15 03:43:10;;;;;;;22.80;14.25;;;9.10;99.90;;;;;;5032455;28;20017;-76
2021/11/15 03:45:36;;;;;;;21.98;15.20;;;9.00;99.90;;;;;;5032466;28;20034;-76
2021/11/15 03:48:03;;;;;;;26.45;15.02;;;9.00;99.90;;;;;;5031749;28;20028;-76
2021/11/15 03:50:29;;;;;;;24.85;15.30;;;9.00;99.90;;;;;;5032483;28;20120;-75
2021/11/15 03:52:56;;;;;;;22.27;16.05;;;9.00;99.90;;;;;;5034426;28;20021;-75
2021/11/15 03:55:23;;;;;;;23.83;16.15;;;9.00;99.90;;;;;;5031713;28;20021;-76
2021/11/15 03:57:50;;;;;;;23.23;15.18;;;9.00;99.90;;;;;;5035112;28;20021;-76
2021/11/15 04:00:20;;;;;;;26.48;15.25;;;9.00;99.90;;;;;;5032183;28;20112;-76
2021/11/15 04:02:52;;;;;;;23.42;15.13;;;9.00;99.90;;;;;;5031682;28;20466;-76
2021/11/15 04:05:29;;;;;;;26.13;15.85;;;9.00;99.90;;;;;;5031889;28;20041;-76
2021/11/15 04:07:56;;;;;;;23.40;15.27;;;9.00;99.90;;;;;;5034284;28;20370;-76
2021/11/15 04:10:40;;;;;;;24.42;15.50;;;9.00;99.90;;;;;;5032237;28;20032;-76
2021/11/15 04:13:09;;;;;;;22.75;14.38;;;8.90;99.90;;;;;;5031607;28;20026;-75
2021/11/15 04:15:36;;;;;;;23.25;14.45;;;8.90;99.90;;;;;;5031258;28;20108;-76
2021/11/15 04:18:03;;;;;;;22.52;14.82;;;8.90;99.90;;;;;;5031688;28;20036;-76
2021/11/15 04:20:31;;;;;;;26.10;15.45;;;8.90;99.90;;;;;;5032011;28;20022;-76
2021/11/15 04:22:57;;;;;;;20.88;14.40;;;8.90;99.90;;;;;;5031104;28;20037;-77
2021/11/15 04:25:23;;;;;;;23.08;15.70;;;8.90;99.90;;;;;;5031934;28;20037;-75
2021/11/15 04:27:49;;;;;;;24.70;14.88;;;8.90;99.90;;;;;;5031710;28;20017;-77
2021/11/15 04:30:14;;;;;;;20.13;14.18;;;8.90;99.90;;;;;;5030941;28;20477;-77
2021/11/15 04:32:42;;;;;;;20.77;14.35;;;8.90;99.90;;;;;;5031668;28;20458;-76
2021/11/15 04:35:10;;;;;;;25.88;14.20;;;8.90;99.90;;;;;;5031629;28;20061;-76
2021/11/15 04:37:36;;;;;;;26.33;14.68;;;8.90;99.90;;;;;;5031087;28;20032;-76
2021/11/15 04:40:03;;;;;;;22.10;14.13;;;8.90;99.90;;;;;;5031507;28;20079;-76
2021/11/15 04:42:29;;;;;;;24.65;15.07;;;8.80;99.90;;;;;;5031656;28;20022;-77
2021/11/15 04:44:55;;;;;;;26.73;15.18;;;8.80;99.90;;;;;;5030867;28;20034;-76
2021/11/15 04:47:20;;;;;;;21.27;13.70;;;8.80;99.90;;;;;;5031686;28;20025;-76
2021/11/15 04:49:46;;;;;;;20.27;13.55;;;8.80;99.90;;;;;;5031592;28;20040;-76
2021/11/15 04:52:12;;;;;;;21.13;13.88;;;8.80;99.90;;;;;;5031094;28;20025;-77
2021/11/15 04:54:37;;;;;;;24.75;14.20;;;8.80;99.90;;;;;;5031726;28;20079;-76
2021/11/15 04:57:03;;;;;;;25.50;14.13;;;8.90;99.90;;;;;;5031201;28;20117;-76
2021/11/15 04:59:29;;;;;;;25.60;13.63;;;8.80;99.90;;;;;;5031821;28;20026;-76
2021/11/15 05:01:55;;;;;;;23.13;14.05;;;8.80;99.90;;;;;;5031845;28;20104;-76
2021/11/15 05:04:20;;;;;;;21.25;13.98;;;8.80;99.90;;;;;;5031010;28;20099;-75
2021/11/15 05:06:46;;;;;;;20.67;12.77;;;8.70;99.90;;;;;;5031403;28;20491;-77
2021/11/15 05:09:11;;;;;;;23.27;13.68;;;8.80;99.90;;;;;;5031307;28;20398;-77
2021/11/15 05:11:37;;;;;;;23.45;13.57;;;8.80;99.90;;;;;;5030651;28;20070;-76
2021/11/15 05:14:02;;;;;;;25.42;13.93;;;8.80;99.90;;;;;;5031134;28;20030;-77
2021/11/15 05:16:28;;;;;;;21.35;13.48;;;8.80;99.90;;;;;;5031477;28;20022;-77
2021/11/15 05:18:54;;;;;;;22.35;12.88;;;8.70;99.90;;;;;;5031581;28;20032;-76
2021/11/15 05:21:19;;;;;;;21.10;13.65;;;8.70;99.90;;;;;;5035073;28;20124;-76
2021/11/15 05:23:52;;;;;;;21.65;13.73;;;8.70;99.90;;;;;;5034635;28;20025;-76
2021/11/15 05:26:17;;;;;;;22.50;12.90;;;8.70;99.90;;;;;;5033981;28;20026;-76
2021/11/15 05:28:43;;;;;;;22.50;13.07;;;8.70;99.90;;;;;;5034698;28;20025;-74
2021/11/15 05:31:09;;;;;;;18.13;12.35;;;8.70;99.90;;;;;;5034562;28;20036;-77
2021/11/15 05:33:36;;;;;;;18.73;13.10;;;8.70;99.90;;;;;;5034489;28;20022;-76
2021/11/15 05:36:02;;;;;;;21.25;12.88;;;8.60;99.90;;;;;;5034404;28;20105;-76
2021/11/15 05:38:28;;;;;;;22.30;13.40;;;8.60;99.90;;;;;;5035253;28;20025;-75
2021/11/15 05:40:53;;;;;;;19.60;13.60;;;8.60;99.90;;;;;;5034277;28;20624;-76
2021/11/15 05:43:19;;;;;;;21.30;13.65;;;8.70;99.90;;;;;;5035516;28;20085;-76
2021/11/15 05:45:45;;;;;;;23.92;13.55;;;8.60;99.90;;;;;;5035136;28;20377;-75
2021/11/15 05:48:10;;;;;;;22.55;13.38;;;8.60;99.90;;;;;;5033790;28;20025;-77
2021/11/15 05:50:36;;;;;;;24.48;13.85;;;8.60;99.90;;;;;;5035178;28;20477;-76
2021/11/15 05:53:02;;;;;;;21.30;13.43;;;8.60;99.90;;;;;;5034022;28;20420;-76
2021/11/15 05:55:28;;;;;;;21.45;12.68;;;8.60;99.90;;;;;;5034020;28;20022;-76
2021/11/15 05:57:54;;;;;;;21.40;13.38;;;8.60;99.90;;;;;;5034273;28;20128;-75
2021/11/15 06:00:24;;;;;;;18.95;13.23;;;8.60;99.90;;;;;;5034314;28;20143;-76
2021/11/15 06:02:50;;;;;;;22.33;14.30;;;8.60;99.90;;;;;;5034622;28;20036;-76
2021/11/15 06:05:15;;;;;;;22.45;13.98;;;8.70;99.90;;;;;;5033924;28;20029;-76
2021/11/15 06:07:41;;;;;;;16.13;12.85;;;8.70;99.90;;;;;;5033526;28;20026;-74
2021/11/15 06:10:08;;;;;;;22.77;14.02;;;8.60;99.90;;;;;;5033569;28;20489;-76
2021/11/15 06:12:37;;;;;;;25.35;14.25;;;8.60;99.90;;;;;;5032932;28;20034;-76
2021/11/15 06:15:03;;;;;;;23.05;14.38;;;8.60;99.90;;;;;;5021316;28;20029;-76
2021/11/15 06:17:28;;;;;;;22.55;14.27;;;8.60;99.90;;;;;;5017012;28;20026;-77
2021/11/15 06:19:54;;;;;;;20.65;13.27;;;8.70;99.90;;;;;;5015912;28;20437;-76
2021/11/15 06:22:20;;;;;;;29.13;13.50;;;8.60;99.90;;;;;;5025625;28;20454;-77
2021/11/15 06:24:47;;;;;;;24.25;13.40;;;8.60;99.90;;;;;;5032305;28;20129;-77
2021/11/15 06:27:17;;;;;;;21.33;13.98;;;8.60;99.90;;;;;;5034454;28;20033;-76
2021/11/15 06:29:44;;;;;;;18.90;13.23;;;8.60;99.90;;;;;;5032205;28;20428;-75
2021/11/15 06:32:13;;;;;;;24.88;14.98;;;8.60;99.90;;;;;;5031943;28;20272;-76
2021/11/15 06:34:39;;;;;;;23.42;14.10;;;8.60;99.90;;;;;;5033159;28;20056;-76
2021/11/15 06:37:06;;;;;;;30.63;16.00;;;8.60;99.90;;;;;;5030965;28;20448;-76
2021/11/15 06:39:32;;;;;;;23.45;14.65;;;8.60;99.90;;;;;;5032764;28;20033;-77
2021/11/15 06:41:58;;;;;;;23.02;14.65;;;8.60;99.90;;;;;;5031687;28;20404;-76
2021/11/15 06:44:26;;;;;;;22.98;14.45;;;8.60;99.90;;;;;;5031297;28;20638;-77
2021/11/15 06:46:52;;;;;;;28.17;16.73;;;8.50;99.90;;;;;;5032501;28;20425;-76
2021/11/15 06:49:18;;;;;;;25.33;14.60;;;8.50;99.90;;;;;;5021330;28;20022;-76
2021/11/15 06:51:44;;;;;;;23.98;15.30;;;8.50;99.90;;;;;;5021458;28;20026;-76
2021/11/15 06:54:10;;;;;;;24.33;15.00;;;8.50;99.90;;;;;;5016823;28;20025;-77
2021/11/15 06:56:36;;;;;;;29.42;15.38;;;8.50;99.90;;;;;;5019842;28;20044;-77
2021/11/15 06:59:02;;;;;;;24.80;15.10;;;8.50;99.90;;;;;;5014150;28;20080;-78
2021/11/15 07:01:28;;;;;;;27.20;16.02;;;8.50;99.90;;;;;;5019510;28;20030;-76
2021/11/15 07:03:54;;;;;;;22.83;14.75;;;8.50;99.90;;;;;;5022977;28;20781;-78
2021/11/15 07:06:20;;;;;;;25.08;15.18;;;8.40;99.90;;;;;;5018640;28;20058;-76
2021/11/15 07:08:46;;;;;;;25.42;15.70;;;8.40;99.90;;;;;;5027623;28;20572;-77
2021/11/15 07:11:12;;;;;;;24.45;14.35;;;8.40;99.90;;;;;;5012242;28;20034;-76
2021/11/15 07:13:37;;;;;;;24.35;15.27;;;8.40;99.90;;;;;;5013452;28;20018;-77
2021/11/15 07:16:03;;;;;;;28.65;15.05;;;8.40;99.90;;;;;;5014164;28;20024;-75
2021/11/15 07:18:30;;;;;;;25.42;15.68;;;8.40;99.90;;;;;;5017106;28;20029;-76
2021/11/15 07:20:56;;;;;;;33.90;16.55;;;9.00;99.90;;;;;;5013813;28;20017;-76
2021/11/15 07:23:22;;;;;;;29.00;16.20;;;8.40;99.90;;;;;;5024495;28;20022;-77
2021/11/15 07:25:48;;;;;;;24.42;15.45;;;8.40;99.90;;;;;;5014684;28;20042;-77
2021/11/15 07:28:14;;;;;;;30.65;17.95;;;8.30;99.90;;;;;;5014383;28;20072;-77
2021/11/15 07:30:40;;;;;;;28.17;15.88;;;8.30;99.90;;;;;;5015220;28;20025;-76
2021/11/15 07:33:07;;;;;;;25.45;15.25;;;8.40;99.90;;;;;;5025625;28;20024;-75
2021/11/15 07:35:33;;;;;;;30.50;17.67;;;8.40;99.90;;;;;;5013827;28;20047;-77
2021/11/15 07:37:59;;;;;;;29.17;17.45;;;8.40;99.90;;;;;;5015014;28;20483;-77
2021/11/15 07:40:28;;;;;;;30.80;18.08;;;8.40;99.90;;;;;;5026599;28;20029;-77
2021/11/15 07:42:53;;;;;;;30.00;16.92;;;8.40;99.90;;;;;;5029618;28;20109;-77
2021/11/15 07:45:19;;;;;;;31.27;17.40;;;8.40;99.90;;;;;;5030704;28;20541;-79
2021/11/15 07:47:45;;;;;;;32.95;18.15;;;8.40;99.90;;;;;;5031480;28;20021;-78
2021/11/15 07:50:12;;;;;;;27.63;16.80;;;8.50;99.90;;;;;;5032827;28;20033;-78
2021/11/15 07:52:38;;;;;;;28.38;16.98;;;8.40;99.90;;;;;;5030718;28;20018;-77
2021/11/15 07:55:06;;;;;;;34.25;18.02;;;8.40;99.90;;;;;;5029785;28;20831;-78
2021/11/15 07:57:33;;;;;;;28.55;18.00;;;8.40;99.90;;;;;;5034780;28;20022;-79
2021/11/15 07:59:59;;;;;;;28.00;16.63;;;8.50;99.90;;;;;;5034932;28;20033;-78
2021/11/15 08:02:24;;;;;;;32.08;17.42;;;8.40;99.90;;;;;;5031013;28;20389;-77
2021/11/15 08:04:50;;;;;;;26.23;15.80;;;8.50;99.90;;;;;;5031121;28;20113;-78
2021/11/15 08:07:16;;;;;;;29.92;16.98;;;8.50;99.90;;;;;;5028121;28;20260;-78
2021/11/15 08:09:42;;;;;;;28.70;15.70;;;8.40;99.90;;;;;;5029061;28;20149;-77
2021/11/15 08:12:10;;;;;;;27.83;17.60;;;8.50;99.90;;;;;;5030086;28;20465;-77
2021/11/15 08:14:39;;;;;;;29.40;18.05;;;8.40;99.90;;;;;;5022671;28;20075;-77
2021/11/15 08:17:05;;;;;;;33.08;18.33;;;8.40;99.90;;;;;;5025405;28;20501;-79
2021/11/15 08:19:31;;;;;;;32.97;19.73;;;8.50;99.90;;;;;;5030626;28;20096;-77
2021/11/15 08:21:58;;;;;;;31.30;19.20;;;8.40;99.90;;;;;;5029265;28;20025;-77
2021/11/15 08:24:53;;;;;;;30.77;18.08;;;8.40;99.90;;;;;;5029251;28;20034;-78
2021/11/15 08:27:19;;;;;;;32.15;18.00;;;8.40;99.90;;;;;;5015703;28;20034;-79
2021/11/15 08:29:45;;;;;;;34.38;17.65;;;8.50;99.90;;;;;;5029155;28;20026;-77
2021/11/15 08:32:13;;;;;;;30.15;17.30;;;8.40;99.90;;;;;;5029844;28;20412;-77
2021/11/15 08:34:43;;;;;;;31.75;18.10;;;8.50;99.90;;;;;;5029457;28;20434;-79
2021/11/15 08:37:12;;;;;;;31.98;18.20;;;8.50;99.90;;;;;;5028049;28;20018;-78
2021/11/15 08:39:37;;;;;;;29.52;16.85;;;8.50;99.90;;;;;;5029682;28;20488;-78
2021/11/15 08:42:05;;;;;;;30.95;17.85;;;8.60;99.90;;;;;;5029301;28;20045;-77
2021/11/15 08:44:33;;;;;;;30.95;17.00;;;8.50;99.90;;;;;;5030536;28;20021;-79
2021/11/15 08:47:00;;;;;;;31.00;17.52;;;8.50;99.90;;;;;;5030813;28;20429;-79
2021/11/15 08:49:30;;;;;;;32.58;17.15;;;8.30;99.90;;;;;;5026866;28;20042;-77
2021/11/15 08:51:57;;;;;;;27.95;16.05;;;8.50;99.90;;;;;;5031280;28;20026;-75
2021/11/15 08:54:23;;;;;;;29.17;17.10;;;8.50;99.90;;;;;;5025623;28;20068;-75
2021/11/15 08:56:52;;;;;;;29.15;15.90;;;8.50;99.90;;;;;;5032834;28;20021;-76
2021/11/15 08:59:19;;;;;;;26.60;15.77;;;8.40;99.90;;;;;;5034968;28;20389;-77
2021/11/15 09:01:46;;;;;;;34.38;16.80;;;8.40;99.90;;;;;;5035255;28;20496;-80
2021/11/15 09:04:12;;;;;;;31.02;17.10;;;8.40;99.90;;;;;;5034929;28;20044;-79
2021/11/15 09:06:38;;;;;;;28.75;16.42;;;8.40;99.90;;;;;;5036052;28;20021;-78
2021/11/15 09:09:07;;;;;;;31.55;16.58;;;8.40;99.90;;;;;;5035580;28;20037;-79
2021/11/15 09:11:36;;;;;;;31.52;18.38;;;8.40;99.90;;;;;;5036615;28;20438;-80
2021/11/15 09:14:02;;;;;;;31.13;18.25;;;8.40;99.90;;;;;;5025243;28;20485;-79
2021/11/15 09:16:28;;;;;;;31.98;16.45;;;7.70;99.90;;;;;;5025011;28;20032;-80
2021/11/15 09:18:54;;;;;;;26.65;16.17;;;8.30;99.90;;;;;;5030271;28;20108;-79
2021/11/15 09:21:20;;;;;;;27.80;15.55;;;8.30;99.90;;;;;;5035469;28;20440;-81
2021/11/15 09:23:47;;;;;;;30.52;16.95;;;8.30;99.90;;;;;;5035667;28;20520;-80
2021/11/15 09:26:16;;;;;;;30.10;16.08;;;8.30;99.90;;;;;;5021312;28;20071;-80
2021/11/15 09:29:13;;;;;;;30.00;17.10;;;8.30;99.90;;;;;;5037071;28;20030;-80
2021/11/15 09:31:46;;;;;;;29.58;18.27;;;8.20;99.90;;;;;;5034369;28;20029;-79
2021/11/15 09:34:12;;;;;;;30.85;16.98;;;8.40;99.90;;;;;;5039896;28;20033;-80
2021/11/15 09:36:38;;;;;;;31.95;16.15;;;8.40;99.90;;;;;;5037115;28;20056;-80
2021/11/15 09:39:06;;;;;;;34.83;18.75;;;8.40;99.90;;;;;;5034353;28;20108;-80
2021/11/15 09:41:32;;;;;;;32.15;17.90;;;9.20;99.90;;;;;;5028254;28;20030;-81
2021/11/15 09:43:58;;;;;;;32.55;18.83;;;8.40;99.90;;;;;;5038575;28;20398;-81
2021/11/15 09:46:27;;;;;;;31.45;18.33;;;8.40;99.90;;;;;;5041824;28;20026;-81
2021/11/15 09:49:06;;;;;;;33.47;18.77;;;8.40;99.90;;;;;;5046313;28;20052;-80
2021/11/15 09:51:33;;;;;;;30.23;17.95;;;8.70;99.90;;;;;;5035862;28;20048;-80
2021/11/15 09:54:00;;;;;;;32.83;17.90;;;8.50;99.90;;;;;;5035761;28;20373;-80
2021/11/15 09:56:26;;;;;;;29.48;16.70;;;8.50;99.90;;;;;;5035675;28;20032;-81
2021/11/15 09:58:52;;;;;;;31.70;17.10;;;8.50;99.90;;;;;;5037077;28;20025;-81
2021/11/15 10:01:21;;;;;;;27.90;15.73;;;8.50;99.90;;;;;;5048067;28;20032;-80
2021/11/15 10:03:46;;;;;;;28.40;17.58;;;8.50;99.90;;;;;;5043796;28;20017;-80
2021/11/15 10:06:12;;;;;;;29.58;16.88;;;8.50;99.90;;;;;;5035587;28;20033;-80
2021/11/15 10:08:43;;;;;;;24.27;15.15;;;8.50;99.90;;;;;;5035954;28;20084;-81
2021/11/15 10:11:09;;;;;;;26.98;15.35;;;8.60;99.90;;;;;;5036074;28;20025;-80
2021/11/15 10:13:35;;;;;;;31.23;16.40;;;8.50;99.90;;;;;;5034580;28;20058;-79
2021/11/15 10:16:05;;;;;;;24.65;15.38;;;8.60;99.90;;;;;;5035198;28;20057;-80
2021/11/15 10:18:42;;;;;;;28.25;16.73;;;8.60;99.90;;;;;;5031929;28;20084;-82
2021/11/15 10:21:10;;;;;;;22.90;14.18;;;8.60;99.90;;;;;;5037521;28;20080;-80
2021/11/15 10:24:07;;;;;;;25.08;15.25;;;8.60;99.90;;;;;;5038117;28;20037;-80
2021/11/15 10:26:48;;;;;;;26.35;15.23;;;9.50;99.90;;;;;;5028464;28;20060;-80
2021/11/15 10:29:22;;;;;;;;;;;8.70;99.90;;;;;;5027313;28;20021;-80
2021/11/15 10:32:04;;;;;;;30.10;15.88;;;8.60;99.90;;;;;;5035494;28;19909;-81
2021/11/15 10:34:31;;;;;;;28.17;16.02;;;8.60;99.90;;;;;;5028648;28;20103;-79
2021/11/15 10:37:18;;;;;;;29.38;16.00;;;8.70;99.90;;;;;;5031450;28;20024;-79
2021/11/15 10:39:51;;;;;;;26.02;15.30;;;8.70;99.90;;;;;;5031688;28;20060;-80
2021/11/15 10:42:18;;;;;;;29.00;16.55;;;8.80;99.90;;;;;;5032138;28;20469;-80
2021/11/15 10:44:57;;;;;;;23.90;14.90;;;8.80;99.90;;;;;;5033608;28;20124;-83
2021/11/15 10:47:40;;;;;;;26.25;15.45;;;8.70;99.90;;;;;;5032644;28;20474;-81
2021/11/15 10:50:28;;;;;;;27.27;16.02;;;8.70;99.90;;;;;;5031328;28;20032;-80
2021/11/15 10:53:00;;;;;;;27.60;15.90;;;8.70;99.90;;;;;;5034737;28;20022;-78
2021/11/15 10:55:27;;;;;;;27.20;16.35;;;8.70;99.90;;;;;;5033067;28;20052;-79
2021/11/15 10:57:52;;;;;;;26.23;15.10;;;9.30;99.90;;;;;;5026006;28;20024;-79
2021/11/15 11:00:20;;;;;;;27.67;16.20;;;8.60;99.90;;;;;;5024119;28;20116;-80
2021/11/15 11:02:53;;;;;;;27.98;15.63;;;8.60;99.90;;;;;;5021249;28;20022;-80
2021/11/15 11:05:21;;;;;;;25.08;15.10;;;8.60;99.90;;;;;;5032555;28;20036;-81
2021/11/15 11:08:06;;;;;;;31.90;15.77;;;8.60;99.90;;;;;;5032999;28;20064;-79
2021/11/15 11:10:39;;;;;;;27.05;15.35;;;8.60;99.90;;;;;;5023416;28;20042;-80
2021/11/15 11:13:04;;;;;;;30.33;15.52;;;8.60;99.90;;;;;;5030217;28;20465;-79
2021/11/15 11:18:00;;;;;;;24.80;14.57;;;8.70;99.90;;;;;;5027086;28;20073;-73
2021/11/15 11:20:31;;;;;;;23.23;15.00;;;8.60;99.90;;;;;;5031513;28;20033;-79
2021/11/15 11:25:50;;;;;;;23.88;13.07;;;8.50;99.90;;;;;;5029478;28;20535;-78
2021/11/15 11:28:32;;;;;;;26.40;13.52;;;8.60;99.90;;;;;;5031888;28;20029;-79
2021/11/15 11:31:00;;;;;;;24.63;15.00;;;8.50;99.90;;;;;;5029216;28;20056;-80
2021/11/15 11:33:29;;;;;;;27.25;15.43;;;8.50;99.90;;;;;;5029443;28;20022;-80
2021/11/15 11:35:55;;;;;;;26.85;15.80;;;8.40;99.90;;;;;;5032873;28;20029;-79
2021/11/15 11:38:21;;;;;;;26.42;14.68;;;8.30;99.90;;;;;;5034628;28;20104;-79
2021/11/15 11:40:47;;;;;;;34.17;15.80;;;8.40;99.90;;;;;;5031163;28;20032;-80
2021/11/15 11:43:16;;;;;;;30.65;16.58;;;8.30;99.90;;;;;;5028281;28;20025;-80
2021/11/15 11:45:43;;;;;;;32.70;15.73;;;8.30;99.90;;;;;;5030066;28;20037;-81
2021/11/15 11:48:11;;;;;;;30.42;15.82;;;8.30;99.90;;;;;;5030406;28;20045;-79
2021/11/15 11:50:38;;;;;;;27.92;15.43;;;8.40;99.90;;;;;;5029370;28;20084;-79
2021/11/15 11:53:07;;;;;;;30.65;16.45;;;8.30;99.90;;;;;;5026476;28;20076;-80
2021/11/15 11:55:35;;;;;;;32.47;16.17;;;8.30;99.90;;;;;;5030788;28;20444;-79
2021/11/15 11:58:26;;;;;;;23.67;14.38;;;8.30;99.90;;;;;;5030536;28;20101;-78
2021/11/15 12:00:57;;;;;;;29.40;15.90;;;8.20;99.90;;;;;;5031054;28;20092;-79
2021/11/15 12:03:24;;;;;;;30.35;15.55;;;8.30;99.90;;;;;;5024639;28;20112;-79
2021/11/15 12:05:55;;;;;;;30.65;16.17;;;8.30;99.90;;;;;;5030866;28;20053;-78
2021/11/15 12:08:58;;;;;;;26.85;14.45;;;8.30;99.90;;;;;;5030051;28;20065;-79
2021/11/15 12:11:25;;;;;;;28.20;14.25;;;8.30;99.90;;;;;;5030880;28;20482;-80
2021/11/15 12:13:52;;;;;;;29.77;15.32;;;8.30;99.90;;;;;;5030279;28;20075;-79
2021/11/15 12:16:17;;;;;;;30.65;15.70;;;8.30;99.90;;;;;;5030400;28;20109;-79
2021/11/15 12:19:00;;;;;;;31.40;15.63;;;8.30;99.90;;;;;;5030362;28;20088;-79
2021/11/15 12:21:37;;;;;;;30.35;15.73;;;8.30;99.90;;;;;;5030494;28;20026;-79
2021/11/15 12:24:06;;;;;;;26.98;13.93;;;8.30;99.90;;;;;;5032545;28;20109;-80
2021/11/15 12:26:47;;;;;;;28.98;16.23;;;8.30;99.90;;;;;;5034353;28;20041;-80
2021/11/15 12:29:18;;;;;;;27.92;15.63;;;8.30;99.90;;;;;;5035589;28;20026;-80
2021/11/15 12:31:48;;;;;;;26.70;15.07;;;8.30;99.90;;;;;;5033819;28;20080;-79
2021/11/15 12:34:15;;;;;;;31.58;15.68;;;8.30;99.90;;;;;;5037953;28;20459;-78
2021/11/15 12:36:51;;;;;;;26.88;14.30;;;8.30;99.90;;;;;;5040214;28;20021;-79
2021/11/15 12:39:23;;;;;;;27.15;13.32;;;8.30;99.90;;;;;;5041178;28;20014;-80
2021/11/15 12:41:51;;;;;;;23.85;13.13;;;8.30;99.90;;;;;;5042033;28;20029;-80
2021/11/15 12:44:34;;;;;;;23.27;12.35;;;8.40;99.90;;;;;;5040326;28;20076;-80
2021/11/15 12:47:18;;;;;;;24.30;13.13;;;8.40;99.90;;;;;;5040190;28;20033;-80